createdAt,value
2023-02-11T00:01:28.169Z,5.70
2023-02-11T00:03:56.950Z,5.70
2023-02-11T00:06:27.821Z,5.69
2023-02-11T00:08:55.873Z,5.71
2023-02-11T00:11:30.829Z,5.73
2023-02-11T00:14:02.146Z,5.74
2023-02-11T00:16:31.741Z,5.76
2023-02-11T00:19:01.054Z,5.73
2023-02-11T00:21:29.300Z,5.81
2023-02-11T00:23:59.827Z,5.78
2023-02-11T00:26:32.193Z,6.55
2023-02-11T00:29:00.869Z,6.77
2023-02-11T00:31:29.003Z,6.22
2023-02-11T00:33:56.342Z,6.00
2023-02-11T00:36:27.278Z,5.96
2023-02-11T00:38:56.962Z,5.95
2023-02-11T00:41:25.965Z,5.94
2023-02-11T00:43:53.740Z,5.86
2023-02-11T00:46:21.151Z,5.91
2023-02-11T00:48:48.963Z,5.91
2023-02-11T00:51:16.111Z,5.92
2023-02-11T00:53:43.696Z,5.91
2023-02-11T00:56:10.906Z,5.87
2023-02-11T00:58:38.060Z,5.85
2023-02-11T01:01:05.476Z,5.88
2023-02-11T01:03:32.617Z,5.85
2023-02-11T01:05:59.845Z,5.84
2023-02-11T01:08:27.163Z,5.84
2023-02-11T01:11:07.852Z,5.84
2023-02-11T01:13:37.277Z,5.82
2023-02-11T01:16:08.567Z,5.85
2023-02-11T01:18:36.682Z,5.84
2023-02-11T01:21:04.259Z,5.83
2023-02-11T01:23:31.546Z,5.83
2023-02-11T01:25:59.199Z,5.85
2023-02-11T01:28:29.892Z,5.84
2023-02-11T01:30:57.350Z,5.81
2023-02-11T01:33:24.701Z,5.78
2023-02-11T01:35:52.234Z,5.80
2023-02-11T01:38:25.820Z,5.83
2023-02-11T01:40:57.128Z,5.83
2023-02-11T01:43:27.395Z,5.82
2023-02-11T01:46:17.558Z,5.81
2023-02-11T01:48:51.734Z,5.83
2023-02-11T01:51:26.763Z,5.80
2023-02-11T01:54:14.542Z,5.81
2023-02-11T01:57:08.652Z,5.80
2023-02-11T02:00:01.902Z,5.82
2023-02-11T02:02:49.285Z,5.80
2023-02-11T02:05:51.764Z,5.78
2023-02-11T02:08:29.515Z,5.77
2023-02-11T02:11:00.468Z,5.79
2023-02-11T02:13:31.013Z,5.83
2023-02-11T02:16:03.201Z,5.83
2023-02-11T02:18:54.668Z,5.80
2023-02-11T02:22:05.651Z,5.80
2023-02-11T02:25:07.274Z,5.82
2023-02-11T02:28:02.545Z,5.82
2023-02-11T02:30:54.757Z,5.83
2023-02-11T02:33:56.373Z,5.80
2023-02-11T02:36:41.782Z,5.83
2023-02-11T02:39:24.358Z,5.79
2023-02-11T02:41:54.304Z,5.82
2023-02-11T02:44:21.755Z,5.81
2023-02-11T02:46:49.020Z,5.80
2023-02-11T02:49:17.872Z,5.83
2023-02-11T02:52:21.971Z,5.80
2023-02-11T02:55:41.857Z,5.83
2023-02-11T02:58:38.477Z,5.82
2023-02-11T03:01:52.029Z,5.84
2023-02-11T03:04:42.196Z,5.84
2023-02-11T03:07:26.081Z,5.84
2023-02-11T03:10:10.929Z,5.84
2023-02-11T03:12:41.929Z,5.86
2023-02-11T03:15:12.431Z,5.87
2023-02-11T03:17:45.715Z,5.88
2023-02-11T03:20:18.062Z,5.88
2023-02-11T03:23:16.890Z,5.87
2023-02-11T03:26:02.673Z,5.92
2023-02-11T03:28:40.674Z,5.92
2023-02-11T03:31:22.061Z,5.91
2023-02-11T03:34:04.676Z,5.89
2023-02-11T03:36:45.998Z,5.92
2023-02-11T03:39:22.566Z,5.94
2023-02-11T03:41:52.161Z,5.94
2023-02-11T03:44:22.882Z,5.96
2023-02-11T03:46:53.958Z,5.97
2023-02-11T03:49:27.634Z,5.99
2023-02-11T03:51:56.422Z,5.99
2023-02-11T03:54:30.269Z,6.00
2023-02-11T03:57:01.629Z,6.05
2023-02-11T03:59:29.223Z,6.00
2023-02-11T04:01:57.687Z,6.05
2023-02-11T04:04:25.108Z,6.03
2023-02-11T04:06:52.266Z,6.07
2023-02-11T04:09:19.570Z,6.07
2023-02-11T04:11:46.715Z,6.06
2023-02-11T04:14:13.847Z,6.08
2023-02-11T04:16:41.109Z,6.10
2023-02-11T04:19:08.586Z,6.13
2023-02-11T04:21:35.748Z,6.13
2023-02-11T04:24:03.048Z,6.14
2023-02-11T04:26:30.225Z,6.16
2023-02-11T04:28:57.375Z,6.13
2023-02-11T04:31:24.768Z,6.14
2023-02-11T04:33:52.083Z,6.16
2023-02-11T04:36:19.230Z,6.14
2023-02-11T04:38:46.477Z,6.15
2023-02-11T04:41:13.826Z,6.19
2023-02-11T04:43:40.957Z,6.16
2023-02-11T04:46:08.238Z,6.17
2023-02-11T04:48:35.769Z,6.21
2023-02-11T04:51:02.923Z,6.24
2023-02-11T04:53:30.062Z,6.16
2023-02-11T04:55:57.496Z,6.20
2023-02-11T04:58:24.644Z,6.20
2023-02-11T05:00:51.976Z,6.21
2023-02-11T05:03:19.182Z,6.20
2023-02-11T05:05:46.337Z,6.22
2023-02-11T05:08:13.503Z,6.19
2023-02-11T05:10:40.673Z,6.21
2023-02-11T05:13:07.843Z,6.22
2023-02-11T05:15:35.099Z,6.20
2023-02-11T05:18:02.253Z,6.22
2023-02-11T05:20:29.452Z,6.22
2023-02-11T05:22:56.603Z,6.23
2023-02-11T05:25:23.768Z,6.26
2023-02-11T05:27:50.928Z,6.26
2023-02-11T05:30:18.145Z,6.26
2023-02-11T05:32:45.292Z,6.28
2023-02-11T05:35:12.513Z,6.26
2023-02-11T05:37:40.048Z,6.27
2023-02-11T05:40:07.799Z,6.28
2023-02-11T05:42:35.059Z,6.26
2023-02-11T05:45:02.238Z,6.30
2023-02-11T05:47:29.404Z,6.28
2023-02-11T05:49:56.529Z,6.28
2023-02-11T05:52:24.234Z,6.30
2023-02-11T05:54:51.576Z,6.29
2023-02-11T05:57:18.734Z,6.32
2023-02-11T05:59:45.909Z,6.32
2023-02-11T06:02:13.449Z,6.35
2023-02-11T06:04:41.407Z,6.33
2023-02-11T06:07:08.620Z,6.34
2023-02-11T06:09:38.704Z,6.34
2023-02-11T06:12:06.008Z,6.36
2023-02-11T06:14:34.185Z,6.37
2023-02-11T06:17:01.731Z,6.38
2023-02-11T06:19:28.921Z,6.40
2023-02-11T06:21:56.374Z,6.38
2023-02-11T06:24:47.642Z,6.37
2023-02-11T06:27:11.363Z,6.40
2023-02-11T06:29:38.524Z,6.37
2023-02-11T06:32:05.892Z,6.40
2023-02-11T06:34:33.098Z,6.41
2023-02-11T06:37:00.223Z,6.42
2023-02-11T06:39:27.368Z,6.42
2023-02-11T06:41:54.871Z,6.45
2023-02-11T06:44:22.018Z,6.46
2023-02-11T06:46:49.250Z,6.43
2023-02-11T06:49:16.427Z,6.44
2023-02-11T06:51:43.557Z,6.46
2023-02-11T06:54:12.904Z,6.45
2023-02-11T06:56:41.725Z,6.45
2023-02-11T06:59:09.040Z,6.47
2023-02-11T07:01:36.223Z,6.48
2023-02-11T07:04:03.460Z,6.50
2023-02-11T07:06:30.595Z,6.49
2023-02-11T07:08:57.791Z,6.48
2023-02-11T07:11:28.416Z,6.52
2023-02-11T07:14:01.621Z,6.50
2023-02-11T07:16:28.919Z,6.52
2023-02-11T07:18:56.074Z,6.54
2023-02-11T07:21:24.322Z,6.52
2023-02-11T07:23:52.312Z,6.58
2023-02-11T07:26:23.434Z,6.56
2023-02-11T07:28:51.349Z,6.58
2023-02-11T07:31:26.536Z,6.58
2023-02-11T07:33:57.360Z,6.58
2023-02-11T07:36:24.774Z,6.59
2023-02-11T07:38:52.149Z,6.62
2023-02-11T07:41:22.869Z,6.58
2023-02-11T07:43:50.742Z,6.60
2023-02-11T07:46:23.117Z,6.60
2023-02-11T07:48:50.589Z,6.62
2023-02-11T07:51:22.645Z,6.62
2023-02-11T07:53:50.552Z,6.60
2023-02-11T07:56:20.202Z,6.61
2023-02-11T07:58:48.315Z,6.61
2023-02-11T08:01:20.095Z,6.64
2023-02-11T08:03:47.340Z,6.64
2023-02-11T08:06:17.576Z,6.64
2023-02-11T08:08:44.882Z,6.64
2023-02-11T08:11:19.770Z,6.67
2023-02-11T08:13:47.479Z,6.64
2023-02-11T08:16:22.806Z,6.61
2023-02-11T08:18:51.524Z,6.61
2023-02-11T08:21:20.420Z,6.64
2023-02-11T08:23:47.908Z,6.63
2023-02-11T08:26:21.560Z,6.60
2023-02-11T08:28:51.232Z,6.65
2023-02-11T08:31:35.097Z,6.68
2023-02-11T08:34:02.832Z,6.66
2023-02-11T08:36:34.185Z,6.67
2023-02-11T08:39:18.685Z,6.68
2023-02-11T08:41:54.115Z,6.70
2023-02-11T08:44:22.798Z,6.70
2023-02-11T08:46:51.240Z,6.72
2023-02-11T08:49:19.065Z,6.70
2023-02-11T08:51:46.684Z,6.74
2023-02-11T08:54:14.425Z,6.73
2023-02-11T08:56:42.419Z,6.76
2023-02-11T08:59:15.372Z,6.76
2023-02-11T09:01:44.090Z,6.78
2023-02-11T09:04:11.403Z,6.79
2023-02-11T09:06:39.015Z,6.78
2023-02-11T09:09:06.513Z,6.78
2023-02-11T09:11:35.882Z,6.81
2023-02-11T09:14:04.783Z,6.78
2023-02-11T09:16:36.305Z,6.85
2023-02-11T09:19:05.250Z,6.87
2023-02-11T09:21:32.608Z,6.84
2023-02-11T09:23:59.782Z,6.83
2023-02-11T09:26:33.441Z,6.81
2023-02-11T09:29:01.714Z,6.83
2023-02-11T09:31:31.738Z,6.80
2023-02-11T09:34:04.322Z,6.83
2023-02-11T09:36:37.411Z,6.84
2023-02-11T09:39:11.183Z,6.82
2023-02-11T09:42:06.229Z,6.81
2023-02-11T09:44:36.414Z,6.84
2023-02-11T09:47:19.432Z,6.83
2023-02-11T09:49:58.251Z,6.87
2023-02-11T09:52:44.577Z,6.85
2023-02-11T09:55:30.384Z,6.81
2023-02-11T09:57:58.669Z,6.78
2023-02-11T10:00:33.853Z,6.81
2023-02-11T10:03:25.381Z,6.81
2023-02-11T10:06:14.085Z,6.83
2023-02-11T10:09:11.419Z,6.80
2023-02-11T10:12:01.172Z,7.20
2023-02-11T10:14:57.652Z,7.55
2023-02-11T10:17:48.015Z,7.97
2023-02-11T10:20:35.536Z,8.08
2023-02-11T10:23:19.523Z,7.42
2023-02-11T10:25:54.431Z,7.11
2023-02-11T10:28:33.983Z,7.03
2023-02-11T10:31:39.866Z,7.02
2023-02-11T10:34:14.474Z,6.97
2023-02-11T10:36:44.850Z,7.01
2023-02-11T10:39:15.576Z,6.97
2023-02-11T10:41:50.307Z,7.01
2023-02-11T10:44:32.430Z,6.95
2023-02-11T10:47:10.751Z,7.01
2023-02-11T10:49:44.723Z,6.99
2023-02-11T10:52:23.835Z,7.01
2023-02-11T10:55:25.962Z,7.01
2023-02-11T10:57:59.206Z,7.01
2023-02-11T11:00:36.801Z,7.05
2023-02-11T11:03:19.426Z,7.02
2023-02-11T11:06:00.207Z,7.00
2023-02-11T11:08:51.692Z,7.02
2023-02-11T11:11:22.146Z,7.03
2023-02-11T11:13:52.279Z,7.04
2023-02-11T11:16:37.253Z,7.07
2023-02-11T11:19:07.306Z,7.07
2023-02-11T11:21:48.231Z,7.09
2023-02-11T11:24:22.218Z,7.12
2023-02-11T11:26:54.990Z,7.10
2023-02-11T11:29:52.067Z,7.11
2023-02-11T11:32:27.796Z,7.12
2023-02-11T11:34:59.894Z,7.14
2023-02-11T11:37:31.743Z,7.19
2023-02-11T11:40:03.059Z,7.13
2023-02-11T11:42:34.457Z,7.13
2023-02-11T11:45:15.160Z,7.16
2023-02-11T11:48:14.512Z,7.16
2023-02-11T11:50:59.854Z,7.17
2023-02-11T11:53:52.060Z,7.21
2023-02-11T11:56:34.468Z,7.22
2023-02-11T11:59:16.979Z,7.25
2023-02-11T12:02:28.410Z,7.24
2023-02-11T12:05:15.035Z,7.25
2023-02-11T12:08:38.246Z,7.23
2023-02-11T12:12:23.029Z,7.25
2023-02-11T12:15:04.989Z,7.24
2023-02-11T12:18:19.133Z,7.30
2023-02-11T12:21:13.649Z,7.31
2023-02-11T12:24:27.447Z,7.29
2023-02-11T12:27:21.622Z,7.32
2023-02-11T12:30:22.493Z,7.31
2023-02-11T12:33:37.145Z,7.32
2023-02-11T12:36:36.392Z,7.36
2023-02-11T12:39:27.260Z,7.40
2023-02-11T12:42:53.780Z,7.40
2023-02-11T12:46:01.394Z,7.40
2023-02-11T12:48:46.860Z,7.43
2023-02-11T12:51:36.157Z,7.49
2023-02-11T12:54:17.644Z,7.48
2023-02-11T12:57:26.476Z,7.50
2023-02-11T13:00:18.510Z,7.49
2023-02-11T13:03:05.913Z,7.49
2023-02-11T13:05:51.791Z,7.53
2023-02-11T13:08:32.890Z,7.89
2023-02-11T13:11:08.312Z,7.54
2023-02-11T13:13:52.359Z,7.55
2023-02-11T13:16:48.680Z,7.53
2023-02-11T13:19:38.027Z,7.51
2023-02-11T13:22:16.341Z,7.54
2023-02-11T13:25:08.022Z,7.75
2023-02-11T13:27:58.736Z,8.13
2023-02-11T13:30:36.842Z,8.07
2023-02-11T13:33:17.678Z,7.66
2023-02-11T13:35:56.679Z,7.60
2023-02-11T13:38:28.616Z,7.60
2023-02-11T13:41:24.801Z,7.59
2023-02-11T13:44:22.190Z,7.61
2023-02-11T13:47:04.637Z,7.57
2023-02-11T13:49:40.375Z,7.58
2023-02-11T13:52:27.295Z,7.58
2023-02-11T13:55:02.454Z,7.59
2023-02-11T13:57:34.235Z,7.59
2023-02-11T14:00:33.460Z,7.73
2023-02-11T14:03:31.183Z,7.64
2023-02-11T14:06:31.383Z,7.65
2023-02-11T14:09:01.255Z,7.65
2023-02-11T14:11:36.261Z,7.68
2023-02-11T14:14:26.414Z,7.72
2023-02-11T14:17:02.432Z,7.75
2023-02-11T14:19:45.541Z,7.73
2023-02-11T14:22:19.638Z,7.75
2023-02-11T14:24:59.169Z,7.76
2023-02-11T14:28:07.793Z,7.77
2023-02-11T14:30:48.806Z,7.77
2023-02-11T14:33:34.898Z,7.77
2023-02-11T14:36:27.551Z,7.74
2023-02-11T14:39:49.485Z,7.77
2023-02-11T14:42:22.875Z,7.78
2023-02-11T14:44:53.093Z,7.75
2023-02-11T14:47:29.404Z,7.74
2023-02-11T14:49:56.904Z,7.71
2023-02-11T14:52:34.365Z,7.73
2023-02-11T14:55:33.933Z,7.71
2023-02-11T14:58:31.365Z,7.74
2023-02-11T15:01:02.299Z,7.74
2023-02-11T15:03:38.659Z,7.74
2023-02-11T15:06:21.200Z,7.70
2023-02-11T15:08:53.474Z,7.70
2023-02-11T15:11:25.392Z,7.73
2023-02-11T15:13:55.452Z,7.73
2023-02-11T15:16:25.964Z,7.74
2023-02-11T15:19:03.798Z,7.74
2023-02-11T15:21:35.827Z,7.75
2023-02-11T15:24:20.460Z,7.75
2023-02-11T15:27:08.056Z,7.75
2023-02-11T15:29:39.922Z,7.75
2023-02-11T15:32:09.893Z,7.76
2023-02-11T15:34:37.463Z,7.74
2023-02-11T15:37:05.769Z,7.73
2023-02-11T15:39:40.443Z,7.75
2023-02-11T15:42:25.764Z,7.76
2023-02-11T15:45:28.916Z,7.76
2023-02-11T15:48:18.819Z,7.75
2023-02-11T15:51:25.069Z,7.76
2023-02-11T15:53:58.386Z,7.74
2023-02-11T15:56:43.067Z,7.74
2023-02-11T15:59:19.926Z,7.75
2023-02-11T16:01:49.054Z,7.75
2023-02-11T16:04:20.028Z,7.77
2023-02-11T16:06:48.115Z,7.79
2023-02-11T16:09:15.260Z,7.78
2023-02-11T16:11:48.191Z,7.78
2023-02-11T16:14:27.851Z,7.77
2023-02-11T16:17:13.074Z,7.79
2023-02-11T16:19:50.684Z,7.80
2023-02-11T16:22:25.412Z,7.84
2023-02-11T16:24:56.503Z,7.83
2023-02-11T16:27:35.792Z,7.86
2023-02-11T16:30:04.381Z,7.86
2023-02-11T16:32:31.663Z,7.86
2023-02-11T16:35:01.347Z,7.85
2023-02-11T16:37:28.549Z,7.88
2023-02-11T16:39:56.696Z,7.88
2023-02-11T16:42:24.695Z,7.88
2023-02-11T16:44:51.836Z,7.88
2023-02-11T16:47:28.380Z,7.85
2023-02-11T16:49:56.333Z,7.89
2023-02-11T16:52:25.292Z,7.89
2023-02-11T16:54:53.310Z,7.91
2023-02-11T16:57:24.489Z,7.93
2023-02-11T16:59:52.870Z,7.91
2023-02-11T17:02:28.503Z,7.91
2023-02-11T17:05:00.258Z,7.91
2023-02-11T17:07:28.204Z,7.95
2023-02-11T17:09:56.478Z,7.96
2023-02-11T17:12:25.365Z,7.90
2023-02-11T17:14:54.039Z,7.95
2023-02-11T17:17:23.525Z,8.01
2023-02-11T17:19:51.223Z,7.96
2023-02-11T17:22:18.843Z,7.99
2023-02-11T17:24:46.018Z,7.96
2023-02-11T17:27:13.654Z,7.97
2023-02-11T17:29:41.179Z,7.94
2023-02-11T17:32:08.547Z,7.97
2023-02-11T17:34:35.848Z,7.98
2023-02-11T17:37:08.856Z,8.00
2023-02-11T17:39:37.606Z,7.99
2023-02-11T17:42:06.126Z,7.98
2023-02-11T17:44:33.696Z,8.00
2023-02-11T17:47:00.890Z,7.95
2023-02-11T17:49:28.075Z,7.98
2023-02-11T17:51:55.258Z,7.95
2023-02-11T17:54:22.589Z,7.95
2023-02-11T17:56:50.779Z,7.94
2023-02-11T17:59:18.149Z,7.91
2023-02-11T18:01:45.500Z,7.94
2023-02-11T18:04:17.626Z,7.94
2023-02-11T18:06:45.712Z,7.94
2023-02-11T18:09:13.284Z,7.93
2023-02-11T18:11:41.775Z,7.90
2023-02-11T18:14:11.287Z,7.92
2023-02-11T18:16:40.360Z,7.93
2023-02-11T18:19:07.910Z,7.91
2023-02-11T18:21:35.793Z,7.93
2023-02-11T18:24:06.721Z,7.92
2023-02-11T18:26:36.111Z,7.91
2023-02-11T18:29:05.235Z,7.92
2023-02-11T18:31:33.879Z,7.94
2023-02-11T18:34:04.032Z,7.91
2023-02-11T18:36:31.507Z,7.90
2023-02-11T18:39:00.508Z,7.91
2023-02-11T18:41:28.051Z,7.91
2023-02-11T18:43:58.660Z,7.94
2023-02-11T18:46:25.925Z,7.86
2023-02-11T18:48:55.949Z,7.90
2023-02-11T18:51:24.125Z,7.91
2023-02-11T18:53:51.505Z,7.88
2023-02-11T18:56:22.950Z,7.91
2023-02-11T18:58:51.379Z,7.93
2023-02-11T19:01:29.679Z,7.93
2023-02-11T19:04:00.267Z,7.91
2023-02-11T19:06:30.502Z,7.92
2023-02-11T19:09:01.847Z,7.95
2023-02-11T19:11:47.634Z,7.93
2023-02-11T19:14:19.475Z,7.94
2023-02-11T19:16:47.544Z,7.92
2023-02-11T19:19:14.698Z,7.96
2023-02-11T19:21:44.826Z,7.93
2023-02-11T19:24:15.551Z,7.92
2023-02-11T19:26:43.128Z,7.92
2023-02-11T19:29:10.764Z,7.89
2023-02-11T19:31:38.909Z,7.91
2023-02-11T19:34:07.464Z,7.90
2023-02-11T19:36:35.060Z,7.92
2023-02-11T19:39:04.895Z,7.89
2023-02-11T19:41:33.651Z,7.88
2023-02-11T19:44:02.365Z,7.90
2023-02-11T19:46:36.922Z,7.89
2023-02-11T19:49:05.509Z,7.91
2023-02-11T19:51:35.578Z,7.89
2023-02-11T19:54:02.810Z,7.91
2023-02-11T19:56:29.977Z,7.94
2023-02-11T19:58:57.842Z,7.93
2023-02-11T20:01:26.180Z,7.96
2023-02-11T20:03:55.427Z,7.91
2023-02-11T20:06:28.045Z,7.91
2023-02-11T20:09:02.083Z,7.94
2023-02-11T20:11:31.459Z,7.92
2023-02-11T20:13:59.381Z,7.94
2023-02-11T20:16:45.128Z,7.94
2023-02-11T20:19:21.461Z,7.97
2023-02-11T20:21:53.192Z,7.99
2023-02-11T20:24:21.075Z,7.92
2023-02-11T20:26:49.276Z,7.95
2023-02-11T20:29:18.065Z,7.97
2023-02-11T20:31:46.050Z,7.98
2023-02-11T20:34:13.748Z,7.98
2023-02-11T20:36:41.382Z,7.98
2023-02-11T20:39:11.136Z,7.95
2023-02-11T20:41:39.865Z,7.94
2023-02-11T20:44:10.593Z,7.95
2023-02-11T20:46:41.043Z,7.95
2023-02-11T20:49:12.607Z,7.96
2023-02-11T20:51:40.504Z,7.94
2023-02-11T20:54:17.673Z,7.97
2023-02-11T20:56:48.050Z,7.98
2023-02-11T20:59:16.763Z,7.96
2023-02-11T21:01:48.402Z,7.98
2023-02-11T21:04:19.522Z,7.99
2023-02-11T21:06:50.636Z,8.00
2023-02-11T21:09:21.701Z,7.97
2023-02-11T21:11:51.791Z,8.02
2023-02-11T21:14:20.686Z,8.00
2023-02-11T21:16:49.277Z,8.03
2023-02-11T21:19:17.039Z,7.99
2023-02-11T21:21:44.970Z,7.96
2023-02-11T21:24:12.932Z,7.99
2023-02-11T21:26:40.367Z,7.98
2023-02-11T21:29:08.728Z,8.01
2023-02-11T21:31:37.678Z,8.00
2023-02-11T21:34:05.985Z,7.97
2023-02-11T21:36:36.967Z,7.97
2023-02-11T21:39:05.928Z,7.96
2023-02-11T21:41:35.044Z,7.99
2023-02-11T21:44:02.274Z,7.97
2023-02-11T21:46:29.702Z,7.97
2023-02-11T21:48:57.800Z,8.02
2023-02-11T21:51:27.088Z,8.00
2023-02-11T21:53:58.622Z,8.01
2023-02-11T21:56:28.985Z,8.56
2023-02-11T21:58:58.935Z,8.63
2023-02-11T22:01:32.158Z,8.61
2023-02-11T22:04:00.230Z,8.72
2023-02-11T22:06:31.855Z,8.34
2023-02-11T22:09:06.566Z,8.20
2023-02-11T22:11:34.535Z,8.10
2023-02-11T22:14:01.870Z,8.11
2023-02-11T22:16:30.205Z,8.08
2023-02-11T22:19:02.399Z,8.06
2023-02-11T22:21:30.562Z,8.08
2023-02-11T22:23:57.805Z,8.04
2023-02-11T22:26:27.928Z,8.04
2023-02-11T22:28:56.038Z,8.01
2023-02-11T22:31:30.616Z,8.04
2023-02-11T22:33:59.368Z,8.03
2023-02-11T22:36:36.703Z,8.01
2023-02-11T22:39:12.196Z,8.00
2023-02-11T22:41:42.487Z,7.99
2023-02-11T22:44:09.951Z,7.97
2023-02-11T22:46:38.539Z,7.99
2023-02-11T22:49:07.228Z,7.99
2023-02-11T22:51:34.806Z,7.95
2023-02-11T22:54:06.590Z,8.00
2023-02-11T22:56:35.970Z,7.98
2023-02-11T22:59:07.944Z,7.96
2023-02-11T23:01:35.701Z,8.01
2023-02-11T23:04:06.207Z,7.97
2023-02-11T23:06:34.530Z,7.96
2023-02-11T23:09:07.964Z,7.95
2023-02-11T23:11:36.095Z,7.90
2023-02-11T23:14:03.885Z,7.93
2023-02-11T23:16:34.549Z,7.92
2023-02-11T23:19:08.323Z,7.95
2023-02-11T23:21:38.582Z,7.91
2023-02-11T23:24:11.894Z,7.96
2023-02-11T23:26:41.221Z,7.95
2023-02-11T23:29:09.929Z,7.99
2023-02-11T23:31:43.897Z,7.92
2023-02-11T23:34:12.646Z,7.95
2023-02-11T23:36:39.882Z,7.95
2023-02-11T23:39:07.047Z,7.97
2023-02-11T23:41:34.755Z,7.93
2023-02-11T23:44:01.983Z,7.96
2023-02-11T23:46:29.309Z,7.97
2023-02-11T23:48:56.768Z,7.97
2023-02-11T23:51:24.191Z,7.95
2023-02-11T23:53:52.574Z,7.96
2023-02-11T23:56:24.016Z,7.95
2023-02-11T23:58:55.217Z,7.97
